Time;durP1;ratioP1;P1;durP2;ratioP2;P2;SDS_P1;SDS_P2;PMS_P1;PMS_P2;Temp;Humidity;BMP_temperature;BMP_pressure;BME280_temperature;BME280_humidity;BME280_pressure;Samples;Min_cycle;Max_cycle;Signal;HPM_P1;HPM_P2
2020/12/15 00:01:44;;;;;;;8.20;3.08;;;;;;;;;;5023881;28;20037;-59
2020/12/15 00:04:10;;;;;;;9.60;3.13;;;;;;;;;;5025879;28;20228;-60
2020/12/15 00:06:36;;;;;;;5.72;2.88;;;;;;;;;;5023652;28;20042;-59
2020/12/15 00:09:04;;;;;;;10.38;3.20;;;;;;;;;;5012137;28;20054;-62
2020/12/15 00:11:30;;;;;;;6.32;2.58;;;;;;;;;;5016439;28;20045;-61
2020/12/15 00:13:56;;;;;;;7.15;2.45;;;;;;;;;;5026923;28;20048;-58
2020/12/15 00:16:22;;;;;;;9.27;2.95;;;;;;;;;;5022394;28;20049;-62
2020/12/15 00:19:01;;;;;;;8.55;2.95;;;;;;;;;;5026039;28;20041;-60
2020/12/15 00:21:28;;;;;;;6.53;2.58;;;;;;;;;;5011076;28;20038;-60
2020/12/15 00:23:55;;;;;;;6.95;2.75;;;;;;;;;;5005784;28;20034;-57
2020/12/15 00:26:23;;;;;;;6.50;2.85;;;;;;;;;;5011986;28;20111;-59
2020/12/15 00:28:54;;;;;;;5.63;2.28;;;;;;;;;;5024202;28;20037;-59
2020/12/15 00:31:20;;;;;;;5.78;2.63;;;;;;;;;;5016153;28;20022;-59
2020/12/15 00:33:46;;;;;;;11.05;2.55;;;;;;;;;;5005248;28;20116;-58
2020/12/15 00:36:17;;;;;;;7.38;2.75;;;;;;;;;;5003906;28;20078;-58
2020/12/15 00:38:45;;;;;;;5.35;2.58;;;;;;;;;;5003977;28;20034;-58
2020/12/15 00:41:11;;;;;;;10.05;2.83;;;;;;;;;;5003526;28;20046;-57
2020/12/15 00:43:38;;;;;;;7.15;2.45;;;;;;;;;;5024682;28;20041;-59
2020/12/15 00:46:04;;;;;;;6.40;2.72;;;;;;;;;;5015941;28;20034;-59
2020/12/15 00:48:37;;;;;;;5.05;2.30;;;;;;;;;;5005883;28;20051;-59
2020/12/15 00:51:03;;;;;;;6.30;2.75;;;;;;;;;;5024570;28;20034;-58
2020/12/15 00:53:29;;;;;;;10.85;2.78;;;;;;;;;;5003776;28;20046;-57
2020/12/15 00:55:55;;;;;;;6.53;2.75;;;;;;;;;;5006199;28;20042;-59
2020/12/15 00:58:31;;;;;;;5.70;2.42;;;;;;;;;;5003413;28;21488;-59
2020/12/15 01:00:58;;;;;;;5.28;2.33;;;;;;;;;;5005959;28;20030;-58
2020/12/15 01:03:24;;;;;;;6.82;2.80;;;;;;;;;;5016055;28;20044;-57
2020/12/15 01:05:50;;;;;;;6.70;2.65;;;;;;;;;;5024344;28;20049;-59
2020/12/15 01:08:17;;;;;;;6.18;2.42;;;;;;;;;;5012347;28;20044;-58
2020/12/15 01:10:43;;;;;;;5.25;2.75;;;;;;;;;;5004910;28;20038;-58
2020/12/15 01:13:10;;;;;;;8.05;2.97;;;;;;;;;;5015210;28;20053;-57
2020/12/15 01:15:36;;;;;;;7.07;2.75;;;;;;;;;;5006712;28;20168;-58
2020/12/15 01:18:04;;;;;;;9.20;2.75;;;;;;;;;;5013824;28;20042;-59
2020/12/15 01:20:30;;;;;;;7.95;2.85;;;;;;;;;;5004063;28;20044;-56
2020/12/15 01:22:56;;;;;;;7.35;2.55;;;;;;;;;;5003724;28;20049;-59
2020/12/15 01:25:22;;;;;;;8.55;3.10;;;;;;;;;;5024838;28;20057;-62
2020/12/15 01:27:49;;;;;;;8.07;3.00;;;;;;;;;;5022218;28;20092;-58
2020/12/15 01:30:15;;;;;;;6.72;2.95;;;;;;;;;;5004145;28;20042;-58
2020/12/15 01:32:41;;;;;;;6.60;2.42;;;;;;;;;;5005285;28;20042;-57
2020/12/15 01:35:08;;;;;;;7.45;2.88;;;;;;;;;;5020068;28;20049;-60
2020/12/15 01:37:36;;;;;;;6.30;2.63;;;;;;;;;;5023890;28;20123;-59
2020/12/15 01:40:02;;;;;;;6.25;2.63;;;;;;;;;;5006387;28;20042;-61
2020/12/15 01:42:28;;;;;;;7.15;2.58;;;;;;;;;;5005394;28;20049;-57
2020/12/15 01:44:54;;;;;;;9.15;2.50;;;;;;;;;;5014532;28;20037;-57
2020/12/15 01:47:23;;;;;;;8.30;2.90;;;;;;;;;;5025183;28;20034;-61
2020/12/15 01:49:49;;;;;;;6.90;2.60;;;;;;;;;;5019494;28;20026;-60
2020/12/15 01:52:18;;;;;;;7.15;2.60;;;;;;;;;;5024510;28;20041;-58
2020/12/15 01:54:44;;;;;;;6.60;2.72;;;;;;;;;;5020726;28;20046;-60
2020/12/15 01:57:10;;;;;;;5.05;2.53;;;;;;;;;;5024851;28;20563;-60
2020/12/15 01:59:36;;;;;;;6.43;3.00;;;;;;;;;;5021131;28;20159;-56
2020/12/15 02:02:05;;;;;;;9.32;3.00;;;;;;;;;;5013949;28;20657;-57
2020/12/15 02:04:31;;;;;;;7.43;2.72;;;;;;;;;;5002557;28;20054;-59
2020/12/15 02:06:57;;;;;;;7.05;2.85;;;;;;;;;;5005158;28;20181;-59
2020/12/15 02:09:26;;;;;;;8.55;2.50;;;;;;;;;;5002814;28;20062;-58
2020/12/15 02:11:52;;;;;;;5.78;2.58;;;;;;;;;;5003936;28;20034;-58
2020/12/15 02:14:19;;;;;;;5.38;2.80;;;;;;;;;;5003967;28;20050;-59
2020/12/15 02:16:49;;;;;;;6.60;2.50;;;;;;;;;;5017071;28;20116;-61
2020/12/15 02:19:21;;;;;;;7.30;2.45;;;;;;;;;;5024051;28;20033;-58
2020/12/15 02:21:50;;;;;;;10.02;2.88;;;;;;;;;;5004649;28;20094;-58
2020/12/15 02:24:16;;;;;;;7.18;2.97;;;;;;;;;;5004402;28;20049;-59
2020/12/15 02:26:42;;;;;;;7.53;2.70;;;;;;;;;;5001240;28;20062;-58
2020/12/15 02:29:10;;;;;;;6.88;2.50;;;;;;;;;;5004494;28;20047;-58
2020/12/15 02:31:35;;;;;;;8.35;2.65;;;;;;;;;;5012293;28;20042;-59
2020/12/15 02:34:02;;;;;;;7.18;2.38;;;;;;;;;;5024118;28;20123;-59
2020/12/15 02:36:29;;;;;;;5.78;2.50;;;;;;;;;;5021155;28;20049;-58
2020/12/15 02:39:01;;;;;;;7.30;2.40;;;;;;;;;;5023455;28;20037;-56
2020/12/15 02:41:27;;;;;;;6.35;2.80;;;;;;;;;;5015746;28;20046;-56
2020/12/15 02:43:53;;;;;;;7.05;2.83;;;;;;;;;;5002091;28;20053;-58
2020/12/15 02:46:19;;;;;;;5.00;2.40;;;;;;;;;;5002193;28;20078;-59
2020/12/15 02:48:47;;;;;;;6.45;2.70;;;;;;;;;;5004032;28;20046;-57
2020/12/15 02:51:14;;;;;;;9.05;2.45;;;;;;;;;;5001736;28;20070;-57
2020/12/15 02:53:40;;;;;;;7.10;2.80;;;;;;;;;;5024283;28;20277;-60
2020/12/15 02:56:07;;;;;;;6.22;2.65;;;;;;;;;;5025132;28;20038;-58
2020/12/15 02:58:38;;;;;;;5.97;2.55;;;;;;;;;;5002494;28;20038;-59
2020/12/15 03:01:04;;;;;;;6.32;2.58;;;;;;;;;;5012747;28;20045;-59
2020/12/15 03:03:30;;;;;;;5.63;2.55;;;;;;;;;;5020192;28;20049;-58
2020/12/15 03:05:56;;;;;;;7.47;2.63;;;;;;;;;;5002073;28;20058;-56
2020/12/15 03:08:22;;;;;;;4.65;2.30;;;;;;;;;;5010607;28;20082;-57
2020/12/15 03:10:48;;;;;;;11.35;2.92;;;;;;;;;;5005960;28;20035;-57
2020/12/15 03:13:15;;;;;;;6.93;2.83;;;;;;;;;;5003943;28;20030;-59
2020/12/15 03:15:41;;;;;;;7.22;2.47;;;;;;;;;;5006573;28;20049;-58
2020/12/15 03:18:15;;;;;;;4.95;2.17;;;;;;;;;;5004944;28;20042;-58
2020/12/15 03:20:46;;;;;;;6.30;2.55;;;;;;;;;;5004629;28;20038;-57
2020/12/15 03:23:12;;;;;;;7.53;3.08;;;;;;;;;;5012830;28;20139;-57
2020/12/15 03:25:38;;;;;;;5.43;2.60;;;;;;;;;;5024604;28;20045;-56
2020/12/15 03:28:16;;;;;;;8.18;3.33;;;;;;;;;;5005123;28;20062;-57
2020/12/15 03:30:43;;;;;;;7.85;2.90;;;;;;;;;;5004964;28;20049;-59
2020/12/15 03:33:09;;;;;;;6.88;2.67;;;;;;;;;;5005606;28;20046;-56
2020/12/15 03:35:35;;;;;;;6.05;2.50;;;;;;;;;;5026709;28;20056;-54
2020/12/15 03:38:03;;;;;;;7.85;2.60;;;;;;;;;;5022531;28;20074;-56
2020/12/15 03:40:29;;;;;;;5.90;2.60;;;;;;;;;;5025196;28;20049;-60
2020/12/15 03:42:55;;;;;;;6.20;2.55;;;;;;;;;;5007537;28;20045;-59
2020/12/15 03:45:21;;;;;;;6.97;3.00;;;;;;;;;;5022079;28;20049;-57
2020/12/15 03:47:59;;;;;;;6.00;2.40;;;;;;;;;;5027296;28;20120;-59
2020/12/15 03:50:25;;;;;;;10.27;3.10;;;;;;;;;;5023456;28;20042;-58
2020/12/15 03:52:51;;;;;;;6.45;2.83;;;;;;;;;;5025421;28;20123;-57
2020/12/15 03:55:21;;;;;;;4.78;2.38;;;;;;;;;;5008647;28;20034;-57
2020/12/15 03:57:55;;;;;;;5.20;2.53;;;;;;;;;;5005709;28;20038;-58
2020/12/15 04:00:21;;;;;;;6.38;2.83;;;;;;;;;;5016356;28;20124;-58
2020/12/15 04:02:47;;;;;;;4.68;2.35;;;;;;;;;;5025216;28;20042;-57
2020/12/15 04:05:14;;;;;;;6.22;2.40;;;;;;;;;;5021931;28;20078;-58
2020/12/15 04:07:44;;;;;;;6.07;2.65;;;;;;;;;;5026863;28;20052;-58
2020/12/15 04:10:11;;;;;;;6.13;2.63;;;;;;;;;;5012972;28;20033;-61
2020/12/15 04:12:37;;;;;;;7.03;2.47;;;;;;;;;;4996835;28;20038;-59
2020/12/15 04:15:03;;;;;;;5.70;2.67;;;;;;;;;;5003479;28;20034;-58
2020/12/15 04:17:36;;;;;;;5.78;2.72;;;;;;;;;;5004063;28;20048;-61
2020/12/15 04:20:02;;;;;;;7.45;2.70;;;;;;;;;;5007951;28;20029;-59
2020/12/15 04:22:29;;;;;;;6.45;2.50;;;;;;;;;;5023836;28;20025;-60
2020/12/15 04:24:55;;;;;;;6.22;2.53;;;;;;;;;;5020644;28;20055;-57
2020/12/15 04:27:22;;;;;;;6.90;2.55;;;;;;;;;;5006259;28;20044;-60
2020/12/15 04:29:48;;;;;;;8.00;3.10;;;;;;;;;;5005673;28;20026;-61
2020/12/15 04:32:14;;;;;;;7.50;2.88;;;;;;;;;;5023253;28;20045;-62
2020/12/15 04:34:40;;;;;;;6.28;2.50;;;;;;;;;;5025543;28;20048;-61
2020/12/15 04:37:06;;;;;;;6.60;2.80;;;;;;;;;;5006095;28;20090;-59
2020/12/15 04:39:33;;;;;;;5.32;2.42;;;;;;;;;;5005518;28;20098;-60
2020/12/15 04:41:59;;;;;;;7.70;2.58;;;;;;;;;;5002973;28;20118;-58
2020/12/15 04:44:25;;;;;;;7.93;2.72;;;;;;;;;;5005742;28;20045;-61
2020/12/15 04:46:55;;;;;;;6.47;2.80;;;;;;;;;;5014293;28;20109;-59
2020/12/15 04:49:26;;;;;;;5.75;2.28;;;;;;;;;;5025974;28;20040;-58
2020/12/15 04:51:57;;;;;;;6.60;2.67;;;;;;;;;;5022038;28;20349;-58
2020/12/15 04:54:28;;;;;;;6.10;2.83;;;;;;;;;;5024720;28;20044;-59
2020/12/15 04:56:56;;;;;;;6.90;2.90;;;;;;;;;;5022364;28;20047;-58
2020/12/15 04:59:42;;;;;;;7.13;2.78;;;;;;;;;;5024507;28;20065;-59
2020/12/15 05:02:08;;;;;;;7.32;2.95;;;;;;;;;;5010985;28;20065;-56
2020/12/15 05:04:39;;;;;;;8.02;2.97;;;;;;;;;;5004315;28;20038;-57
2020/12/15 05:07:06;;;;;;;6.80;2.90;;;;;;;;;;5000790;28;20038;-57
2020/12/15 05:09:33;;;;;;;7.20;2.65;;;;;;;;;;5003146;28;20050;-61
2020/12/15 05:12:00;;;;;;;6.43;2.40;;;;;;;;;;5004585;28;20042;-61
2020/12/15 05:14:26;;;;;;;7.65;2.70;;;;;;;;;;5023994;28;20042;-61
2020/12/15 05:16:52;;;;;;;6.35;2.67;;;;;;;;;;5019654;28;20092;-58
2020/12/15 05:19:20;;;;;;;6.80;2.42;;;;;;;;;;5023443;28;20030;-56
2020/12/15 05:21:53;;;;;;;6.03;2.60;;;;;;;;;;5025519;28;20053;-59
2020/12/15 05:24:21;;;;;;;7.45;2.28;;;;;;;;;;5006599;28;20049;-57
2020/12/15 05:26:47;;;;;;;5.45;2.40;;;;;;;;;;5006899;28;20045;-54
2020/12/15 05:29:20;;;;;;;9.70;2.38;;;;;;;;;;5003482;28;20045;-57
2020/12/15 05:31:46;;;;;;;6.15;2.30;;;;;;;;;;5005967;28;20053;-58
2020/12/15 05:34:13;;;;;;;9.25;2.65;;;;;;;;;;5000037;28;20041;-58
2020/12/15 05:36:48;;;;;;;7.95;2.63;;;;;;;;;;5006726;28;20041;-55
2020/12/15 05:39:15;;;;;;;6.65;2.63;;;;;;;;;;5001361;28;20038;-59
2020/12/15 05:41:41;;;;;;;6.05;2.42;;;;;;;;;;5010106;28;20058;-61
2020/12/15 05:44:07;;;;;;;8.75;2.63;;;;;;;;;;5023590;28;20082;-62
2020/12/15 05:46:45;;;;;;;10.10;2.47;;;;;;;;;;5024799;28;20139;-58
2020/12/15 05:49:14;;;;;;;7.60;2.57;;;;;;;;;;5021156;28;20045;-58
2020/12/15 05:51:43;;;;;;;5.85;2.13;;;;;;;;;;5024266;28;20042;-59
2020/12/15 05:54:10;;;;;;;7.07;2.55;;;;;;;;;;5013482;28;20365;-60
2020/12/15 05:56:37;;;;;;;12.85;2.28;;;;;;;;;;5004387;28;20430;-61
2020/12/15 05:59:24;;;;;;;5.95;2.30;;;;;;;;;;5002628;28;20053;-59
2020/12/15 06:01:52;;;;;;;6.97;2.15;;;;;;;;;;5004857;28;20089;-60
2020/12/15 06:04:19;;;;;;;7.03;2.92;;;;;;;;;;5007808;28;20120;-58
2020/12/15 06:06:45;;;;;;;8.80;2.38;;;;;;;;;;5022168;28;20030;-59
2020/12/15 06:09:13;;;;;;;6.40;2.60;;;;;;;;;;5020222;28;20131;-57
2020/12/15 06:11:40;;;;;;;5.30;2.40;;;;;;;;;;5024995;28;20042;-62
2020/12/15 06:14:06;;;;;;;5.40;2.30;;;;;;;;;;5018315;28;20042;-61
2020/12/15 06:16:32;;;;;;;7.57;2.50;;;;;;;;;;5005221;28;20115;-58
2020/12/15 06:19:01;;;;;;;7.03;2.80;;;;;;;;;;5004826;28;20428;-59
2020/12/15 06:21:29;;;;;;;6.50;2.63;;;;;;;;;;5001521;28;20097;-61
2020/12/15 06:24:02;;;;;;;6.68;2.45;;;;;;;;;;4986793;28;20098;-59
2020/12/15 06:26:28;;;;;;;7.15;2.42;;;;;;;;;;5017339;28;20034;-60
2020/12/15 06:29:17;;;;;;;7.80;2.40;;;;;;;;;;5024631;28;20040;-61
2020/12/15 06:31:49;;;;;;;7.40;2.55;;;;;;;;;;4980716;28;20030;-58
2020/12/15 06:34:24;;;;;;;6.88;2.38;;;;;;;;;;5021651;28;20070;-57
2020/12/15 06:36:51;;;;;;;8.20;2.80;;;;;;;;;;5001711;28;20038;-60
2020/12/15 06:39:27;;;;;;;6.18;2.67;;;;;;;;;;5003955;28;20042;-59
2020/12/15 06:42:00;;;;;;;8.70;2.40;;;;;;;;;;5016103;28;20029;-61
2020/12/15 06:44:33;;;;;;;8.10;2.72;;;;;;;;;;5024136;28;20038;-61
2020/12/15 06:46:59;;;;;;;7.22;2.78;;;;;;;;;;5003629;28;20038;-61
2020/12/15 06:49:52;;;;;;;11.05;2.88;;;;;;;;;;5005796;28;20038;-59
2020/12/15 06:52:27;;;;;;;7.50;3.00;;;;;;;;;;4971429;28;20053;-52
2020/12/15 06:54:56;;;;;;;6.60;2.55;;;;;;;;;;5024275;28;20115;-59
2020/12/15 06:57:30;;;;;;;10.88;3.28;;;;;;;;;;5006132;28;20026;-58
2020/12/15 06:59:58;;;;;;;5.82;2.65;;;;;;;;;;5003687;28;20097;-59
2020/12/15 07:02:32;;;;;;;10.48;2.75;;;;;;;;;;5000377;28;20112;-56
2020/12/15 07:05:17;;;;;;;8.93;3.10;;;;;;;;;;5003483;28;20046;-57
2020/12/15 07:07:47;;;;;;;6.60;2.75;;;;;;;;;;5000714;28;20042;-58
2020/12/15 07:10:13;;;;;;;8.85;2.95;;;;;;;;;;4998080;28;20050;-59
2020/12/15 07:12:41;;;;;;;10.38;2.63;;;;;;;;;;5010853;28;20106;-60
2020/12/15 07:15:07;;;;;;;8.48;3.00;;;;;;;;;;5022659;28;20049;-58
2020/12/15 07:17:55;;;;;;;9.18;2.75;;;;;;;;;;5009129;28;20048;-59
2020/12/15 07:20:21;;;;;;;8.18;2.80;;;;;;;;;;4996325;28;20042;-59
2020/12/15 07:22:51;;;;;;;6.10;2.55;;;;;;;;;;4999946;28;20124;-60
2020/12/15 07:25:18;;;;;;;4.82;2.47;;;;;;;;;;5005650;28;20124;-62
2020/12/15 07:27:46;;;;;;;7.43;2.80;;;;;;;;;;5006126;28;20050;-59
2020/12/15 07:30:14;;;;;;;5.00;2.63;;;;;;;;;;5011340;28;20042;-56
2020/12/15 07:32:41;;;;;;;6.53;2.90;;;;;;;;;;5007739;28;20041;-63
2020/12/15 07:35:09;;;;;;;8.73;2.58;;;;;;;;;;5011237;28;20046;-57
2020/12/15 07:37:42;;;;;;;8.07;2.67;;;;;;;;;;5002272;28;20077;-59
2020/12/15 07:40:10;;;;;;;5.70;2.63;;;;;;;;;;5008628;28;20070;-62
2020/12/15 07:42:37;;;;;;;5.78;2.67;;;;;;;;;;5010592;28;20042;-58
2020/12/15 07:45:04;;;;;;;6.25;2.80;;;;;;;;;;5012943;28;20070;-60
2020/12/15 07:47:37;;;;;;;8.10;3.42;;;;;;;;;;5012005;28;20078;-58
2020/12/15 07:50:03;;;;;;;8.32;2.75;;;;;;;;;;5014929;28;20057;-59
2020/12/15 07:52:30;;;;;;;6.63;3.03;;;;;;;;;;5017438;28;20045;-62
2020/12/15 07:55:00;;;;;;;5.70;2.65;;;;;;;;;;5005514;28;20038;-62
2020/12/15 07:57:28;;;;;;;9.70;3.20;;;;;;;;;;4989347;28;20042;-59
2020/12/15 07:59:55;;;;;;;7.13;2.88;;;;;;;;;;5003350;28;20057;-60
2020/12/15 08:02:21;;;;;;;6.82;2.50;;;;;;;;;;5040108;28;20026;-60
2020/12/15 08:04:48;;;;;;;6.68;2.83;;;;;;;;;;5019183;28;20060;-58
2020/12/15 08:07:16;;;;;;;6.85;2.90;;;;;;;;;;5025680;28;20042;-60
2020/12/15 08:09:42;;;;;;;5.35;2.63;;;;;;;;;;5020075;28;20057;-56
2020/12/15 08:12:11;;;;;;;7.25;3.13;;;;;;;;;;5026156;28;20037;-59
2020/12/15 08:14:45;;;;;;;8.02;3.10;;;;;;;;;;5013957;28;20048;-58
2020/12/15 08:17:14;;;;;;;7.18;3.22;;;;;;;;;;5007953;28;20050;-60
2020/12/15 08:19:41;;;;;;;8.50;3.22;;;;;;;;;;5002677;28;20060;-60
2020/12/15 08:22:07;;;;;;;6.47;2.78;;;;;;;;;;5004290;28;20053;-55
2020/12/15 08:24:36;;;;;;;7.72;3.45;;;;;;;;;;5007184;28;20092;-58
2020/12/15 08:27:01;;;;;;;;;;;;;;;;;;5025529;28;20124;-62
2020/12/15 08:29:28;;;;;;;9.50;3.25;;;;;;;;;;5017471;28;19941;-62
2020/12/15 08:31:57;;;;;;;8.50;3.70;;;;;;;;;;5006114;28;20046;-59
2020/12/15 08:34:24;;;;;;;8.35;3.55;;;;;;;;;;5002276;28;20096;-61
2020/12/15 08:36:50;;;;;;;14.73;4.68;;;;;;;;;;5005469;28;20117;-60
2020/12/15 08:39:18;;;;;;;9.02;4.53;;;;;;;;;;4995301;28;20067;-60
2020/12/15 08:41:54;;;;;;;13.60;5.80;;;;;;;;;;5014063;28;20487;-62
2020/12/15 08:44:21;;;;;;;10.07;4.60;;;;;;;;;;5003879;28;20123;-61
2020/12/15 08:46:49;;;;;;;10.32;5.00;;;;;;;;;;4971998;28;20038;-59
2020/12/15 08:49:19;;;;;;;9.07;3.95;;;;;;;;;;5005533;28;20038;-58
2020/12/15 08:51:45;;;;;;;14.80;6.18;;;;;;;;;;4991389;28;20037;-63
2020/12/15 08:54:12;;;;;;;10.23;4.93;;;;;;;;;;5022198;28;20069;-61
2020/12/15 08:56:44;;;;;;;12.55;5.40;;;;;;;;;;4998236;28;20030;-59
2020/12/15 08:59:12;;;;;;;8.68;4.68;;;;;;;;;;5002658;28;20050;-59
2020/12/15 09:01:38;;;;;;;11.55;4.95;;;;;;;;;;5001196;28;20074;-62
2020/12/15 09:04:13;;;;;;;10.10;4.68;;;;;;;;;;5003526;28;20152;-61
2020/12/15 09:06:40;;;;;;;10.20;5.20;;;;;;;;;;5000680;28;20039;-62
2020/12/15 09:09:07;;;;;;;10.93;4.88;;;;;;;;;;4999672;28;20037;-61
2020/12/15 09:11:36;;;;;;;11.20;5.53;;;;;;;;;;5003096;28;20046;-62
2020/12/15 09:14:03;;;;;;;11.45;5.45;;;;;;;;;;5006064;28;20053;-61
2020/12/15 09:16:32;;;;;;;9.00;4.30;;;;;;;;;;5007078;28;20041;-57
2020/12/15 09:19:17;;;;;;;10.05;4.82;;;;;;;;;;5024528;28;20093;-62
2020/12/15 09:21:55;;;;;;;8.35;3.60;;;;;;;;;;5017665;28;20128;-59
2020/12/15 09:24:21;;;;;;;9.10;4.45;;;;;;;;;;5003628;28;20030;-60
2020/12/15 09:26:50;;;;;;;7.75;3.83;;;;;;;;;;4992261;28;20041;-60
2020/12/15 09:29:18;;;;;;;8.07;3.95;;;;;;;;;;5005498;28;20057;-59
2020/12/15 09:31:50;;;;;;;6.33;3.10;;;;;;;;;;5000976;28;20050;-58
2020/12/15 09:34:16;;;;;;;10.13;3.70;;;;;;;;;;5004402;28;20034;-62
2020/12/15 09:36:42;;;;;;;9.05;3.28;;;;;;;;;;5003939;28;20038;-61
2020/12/15 09:39:10;;;;;;;11.02;3.50;;;;;;;;;;5022150;28;20049;-60
2020/12/15 09:41:37;;;;;;;6.43;3.20;;;;;;;;;;5018128;28;20062;-61
2020/12/15 09:44:03;;;;;;;8.10;3.17;;;;;;;;;;4999136;28;20050;-57
2020/12/15 09:46:32;;;;;;;10.57;4.05;;;;;;;;;;5004623;28;20054;-59
2020/12/15 09:49:03;;;;;;;;;;;;;;;;;;5000010;28;20042;-55
2020/12/15 09:51:29;;;;;;;12.95;4.50;;;;;;;;;;5001256;28;19953;-58
2020/12/15 09:53:55;;;;;;;8.20;4.03;;;;;;;;;;5000244;28;20042;-57
2020/12/15 09:56:22;;;;;;;7.68;3.03;;;;;;;;;;5003669;28;20110;-59
2020/12/15 09:58:51;;;;;;;10.07;3.25;;;;;;;;;;5009332;28;20088;-59
2020/12/15 10:01:17;;;;;;;8.90;4.32;;;;;;;;;;5022704;28;20076;-58
2020/12/15 10:03:45;;;;;;;8.65;3.38;;;;;;;;;;5018685;28;20109;-59
2020/12/15 10:06:13;;;;;;;7.93;4.00;;;;;;;;;;5020503;28;20034;-56
2020/12/15 10:08:42;;;;;;;9.32;4.35;;;;;;;;;;5014801;28;20153;-60
2020/12/15 10:11:12;;;;;;;8.35;4.03;;;;;;;;;;5008182;28;20034;-59
2020/12/15 10:13:40;;;;;;;6.47;3.28;;;;;;;;;;4990635;28;20065;-56
2020/12/15 10:16:10;;;;;;;9.95;4.22;;;;;;;;;;4986675;28;20060;-62
2020/12/15 10:18:43;;;;;;;8.35;4.05;;;;;;;;;;4989134;28;20069;-62
2020/12/15 10:21:09;;;;;;;9.38;3.88;;;;;;;;;;5011400;28;20141;-56
2020/12/15 10:23:37;;;;;;;8.93;4.57;;;;;;;;;;5014453;28;20044;-59
2020/12/15 10:26:03;;;;;;;10.93;5.10;;;;;;;;;;5018357;28;20156;-58
2020/12/15 10:28:30;;;;;;;14.18;5.65;;;;;;;;;;5003284;28;20103;-61
2020/12/15 10:30:57;;;;;;;16.30;5.53;;;;;;;;;;5000095;28;20047;-61
2020/12/15 10:33:23;;;;;;;12.23;4.97;;;;;;;;;;5004543;28;20049;-63
2020/12/15 10:35:49;;;;;;;9.40;4.40;;;;;;;;;;5014011;28;20037;-59
2020/12/15 10:38:45;;;;;;;9.20;4.22;;;;;;;;;;5024227;28;20123;-60
2020/12/15 10:41:11;;;;;;;8.82;3.70;;;;;;;;;;5003350;28;20124;-61
2020/12/15 10:43:37;;;;;;;9.02;3.75;;;;;;;;;;5003877;28;20038;-62
2020/12/15 10:46:05;;;;;;;9.93;3.65;;;;;;;;;;4994128;28;20031;-62
2020/12/15 10:48:39;;;;;;;9.98;3.85;;;;;;;;;;4995033;28;20115;-61
2020/12/15 10:51:06;;;;;;;8.60;3.55;;;;;;;;;;5000522;28;20050;-60
2020/12/15 10:53:32;;;;;;;9.07;3.25;;;;;;;;;;5000915;28;20043;-57
2020/12/15 10:55:58;;;;;;;7.13;3.50;;;;;;;;;;4999103;28;20089;-61
2020/12/15 10:58:31;;;;;;;15.10;6.07;;;;;;;;;;4997529;28;20103;-60
2020/12/15 11:00:57;;;;;;;10.30;4.45;;;;;;;;;;5005935;28;20042;-61
2020/12/15 11:03:26;;;;;;;6.80;3.47;;;;;;;;;;5004124;28;20042;-61
2020/12/15 11:05:52;;;;;;;8.52;3.38;;;;;;;;;;4980460;28;20039;-59
2020/12/15 11:08:19;;;;;;;9.57;3.22;;;;;;;;;;4982952;28;20066;-57
2020/12/15 11:10:47;;;;;;;7.97;3.70;;;;;;;;;;4977195;28;20097;-61
2020/12/15 11:13:13;;;;;;;7.47;3.37;;;;;;;;;;4968547;28;20086;-62
2020/12/15 11:15:39;;;;;;;8.15;3.90;;;;;;;;;;4982019;28;20280;-58
2020/12/15 11:18:06;;;;;;;11.35;4.05;;;;;;;;;;4982534;28;20060;-60
2020/12/15 11:20:33;;;;;;;9.18;3.80;;;;;;;;;;4986111;28;20054;-59
2020/12/15 11:23:01;;;;;;;9.32;3.47;;;;;;;;;;4966068;28;20047;-62
2020/12/15 11:25:27;;;;;;;7.72;3.63;;;;;;;;;;4967551;28;20046;-56
2020/12/15 11:27:53;;;;;;;6.63;3.65;;;;;;;;;;4964208;28;20046;-59
2020/12/15 11:30:19;;;;;;;7.22;3.33;;;;;;;;;;4966679;28;20039;-58
2020/12/15 11:32:46;;;;;;;7.25;3.38;;;;;;;;;;4970018;28;20041;-57
2020/12/15 11:35:13;;;;;;;6.97;3.40;;;;;;;;;;4970982;28;20047;-59
2020/12/15 11:37:43;;;;;;;6.78;3.30;;;;;;;;;;4964341;28;20039;-59
2020/12/15 11:40:10;;;;;;;7.95;3.25;;;;;;;;;;4967414;28;20035;-60
2020/12/15 11:42:38;;;;;;;9.05;3.40;;;;;;;;;;4973001;28;20074;-60
2020/12/15 11:45:04;;;;;;;8.55;3.40;;;;;;;;;;4978205;28;20035;-56
2020/12/15 11:47:37;;;;;;;6.43;2.88;;;;;;;;;;4976395;28;20059;-61
2020/12/15 11:50:03;;;;;;;8.40;3.80;;;;;;;;;;4973668;28;20035;-57
2020/12/15 11:52:29;;;;;;;9.90;4.43;;;;;;;;;;4976832;28;20046;-60
2020/12/15 11:54:56;;;;;;;8.80;3.53;;;;;;;;;;4987732;28;20098;-58
2020/12/15 11:57:23;;;;;;;8.93;4.10;;;;;;;;;;4972193;28;20043;-58
2020/12/15 11:59:50;;;;;;;8.35;4.05;;;;;;;;;;4977902;28;20067;-61
2020/12/15 12:02:16;;;;;;;7.47;3.47;;;;;;;;;;4977257;28;20074;-58
2020/12/15 12:04:45;;;;;;;6.72;3.40;;;;;;;;;;4993571;28;20042;-60
2020/12/15 12:07:11;;;;;;;8.55;4.15;;;;;;;;;;5013604;28;20038;-60
2020/12/15 12:09:37;;;;;;;10.13;4.07;;;;;;;;;;5008236;28;20038;-62
2020/12/15 12:12:04;;;;;;;10.35;3.95;;;;;;;;;;5013282;28;20199;-59
2020/12/15 12:14:30;;;;;;;7.97;3.80;;;;;;;;;;5010402;28;20111;-58
2020/12/15 12:16:56;;;;;;;9.73;3.42;;;;;;;;;;5012210;28;20034;-58
2020/12/15 12:19:22;;;;;;;8.40;3.80;;;;;;;;;;5001538;28;20046;-59
2020/12/15 12:21:51;;;;;;;10.93;4.22;;;;;;;;;;5005939;28;20045;-60
2020/12/15 12:24:17;;;;;;;;;;;;;;;;;;5002307;28;20136;-59
2020/12/15 12:26:43;;;;;;;11.38;5.47;;;;;;;;;;5003674;28;19914;-58
2020/12/15 12:29:10;;;;;;;11.02;5.28;;;;;;;;;;5006826;28;20034;-59
2020/12/15 12:31:36;;;;;;;14.23;5.75;;;;;;;;;;5025067;28;20034;-59
2020/12/15 12:34:02;;;;;;;16.95;6.18;;;;;;;;;;5019536;28;20050;-60
2020/12/15 12:36:33;;;;;;;15.20;5.80;;;;;;;;;;5005783;28;20049;-58
2020/12/15 12:38:59;;;;;;;12.82;5.55;;;;;;;;;;4999806;28;20063;-60
2020/12/15 12:41:25;;;;;;;9.00;4.50;;;;;;;;;;5019621;28;20129;-58
2020/12/15 12:43:53;;;;;;;10.43;5.03;;;;;;;;;;5004143;28;20049;-59
2020/12/15 12:46:20;;;;;;;12.60;4.68;;;;;;;;;;5007141;28;20048;-59
2020/12/15 12:48:47;;;;;;;12.93;4.22;;;;;;;;;;5025180;28;20052;-62
2020/12/15 12:51:15;;;;;;;10.00;4.05;;;;;;;;;;5005242;28;20034;-59
2020/12/15 12:53:42;;;;;;;8.70;4.05;;;;;;;;;;5003942;28;20046;-60
2020/12/15 12:56:09;;;;;;;9.55;3.72;;;;;;;;;;5014819;28;20134;-61
2020/12/15 12:58:35;;;;;;;8.65;4.57;;;;;;;;;;5025187;28;20053;-61
2020/12/15 13:01:01;;;;;;;10.65;4.07;;;;;;;;;;5010873;28;20090;-61
2020/12/15 13:03:28;;;;;;;8.82;3.67;;;;;;;;;;5004382;28;20090;-61
2020/12/15 13:05:54;;;;;;;10.20;4.45;;;;;;;;;;4999705;28;20042;-60
2020/12/15 13:08:21;;;;;;;13.35;4.05;;;;;;;;;;5005547;28;20034;-59
2020/12/15 13:10:47;;;;;;;8.93;4.35;;;;;;;;;;5004351;28;20041;-59
2020/12/15 13:13:13;;;;;;;8.85;4.18;;;;;;;;;;5005987;28;20034;-60
2020/12/15 13:15:41;;;;;;;9.88;4.60;;;;;;;;;;5002459;28;20056;-59
2020/12/15 13:18:07;;;;;;;7.88;4.38;;;;;;;;;;5005254;28;20042;-59
2020/12/15 13:20:34;;;;;;;11.82;4.93;;;;;;;;;;5003280;28;20111;-60
2020/12/15 13:23:00;;;;;;;11.18;4.88;;;;;;;;;;5003008;28;20046;-59
2020/12/15 13:25:26;;;;;;;11.55;5.13;;;;;;;;;;5006578;28;20046;-58
2020/12/15 13:27:59;;;;;;;13.07;6.28;;;;;;;;;;5002588;28;20050;-59
2020/12/15 13:30:26;;;;;;;11.15;5.03;;;;;;;;;;5005136;28;20034;-60
2020/12/15 13:32:52;;;;;;;11.45;5.47;;;;;;;;;;5017137;28;20053;-60
2020/12/15 13:35:18;;;;;;;18.10;6.50;;;;;;;;;;5023592;28;20084;-59
2020/12/15 13:37:49;;;;;;;14.65;6.88;;;;;;;;;;5007929;28;20066;-62
2020/12/15 13:40:15;;;;;;;12.52;5.20;;;;;;;;;;5005495;28;20045;-60
2020/12/15 13:42:41;;;;;;;11.43;4.70;;;;;;;;;;5002002;28;20040;-61
2020/12/15 13:45:07;;;;;;;12.50;5.20;;;;;;;;;;5020110;28;20086;-61
2020/12/15 13:47:39;;;;;;;11.98;5.00;;;;;;;;;;5011607;28;20049;-57
2020/12/15 13:50:05;;;;;;;13.50;4.85;;;;;;;;;;5005024;28;20038;-59
2020/12/15 13:52:31;;;;;;;11.73;5.28;;;;;;;;;;5002141;28;20062;-58
2020/12/15 13:54:58;;;;;;;16.48;5.25;;;;;;;;;;5004530;28;20048;-59
2020/12/15 13:57:24;;;;;;;11.93;5.03;;;;;;;;;;5001597;28;20065;-59
2020/12/15 13:59:51;;;;;;;10.25;5.18;;;;;;;;;;5004230;28;20045;-59
2020/12/15 14:02:17;;;;;;;11.63;5.57;;;;;;;;;;5000270;28;20058;-60
2020/12/15 14:04:43;;;;;;;14.85;5.60;;;;;;;;;;5020139;28;20132;-59
2020/12/15 14:07:09;;;;;;;12.73;6.00;;;;;;;;;;5017198;28;20045;-61
2020/12/15 14:09:35;;;;;;;13.57;5.35;;;;;;;;;;5018616;28;20062;-59
2020/12/15 14:12:02;;;;;;;11.93;5.43;;;;;;;;;;5023810;28;20029;-61
2020/12/15 14:14:28;;;;;;;14.15;6.07;;;;;;;;;;5003914;28;20160;-59
2020/12/15 14:16:55;;;;;;;11.45;5.63;;;;;;;;;;5004339;28;20070;-62
2020/12/15 14:19:28;;;;;;;13.48;6.05;;;;;;;;;;5000221;28;20058;-62
2020/12/15 14:21:54;;;;;;;15.00;6.15;;;;;;;;;;5004454;28;20041;-62
2020/12/15 14:24:21;;;;;;;9.95;5.38;;;;;;;;;;5002298;28;20050;-60
2020/12/15 14:26:52;;;;;;;14.10;5.75;;;;;;;;;;5004864;28;20102;-62
2020/12/15 14:29:25;;;;;;;12.45;6.35;;;;;;;;;;5010523;28;20073;-62
2020/12/15 14:31:51;;;;;;;16.55;6.05;;;;;;;;;;5024054;28;20048;-62
2020/12/15 14:34:17;;;;;;;14.48;6.75;;;;;;;;;;5018572;28;20046;-61
2020/12/15 14:36:43;;;;;;;11.18;5.97;;;;;;;;;;5021681;28;20048;-60
2020/12/15 14:39:09;;;;;;;15.35;6.55;;;;;;;;;;5020830;28;20045;-62
2020/12/15 14:41:35;;;;;;;13.02;6.45;;;;;;;;;;5018226;28;20077;-61
2020/12/15 14:44:02;;;;;;;13.13;6.57;;;;;;;;;;5001572;28;20049;-61
2020/12/15 14:46:28;;;;;;;16.17;6.25;;;;;;;;;;5002817;28;20048;-62